createdAt,value
2022-09-26T00:00:22.291Z,7.67
2022-09-26T00:01:22.385Z,7.69
2022-09-26T00:02:25.290Z,7.72
2022-09-26T00:03:25.263Z,7.75
2022-09-26T00:04:23.615Z,7.73
2022-09-26T00:05:22.270Z,7.73
2022-09-26T00:06:22.220Z,7.75
2022-09-26T00:07:22.204Z,7.76
2022-09-26T00:08:22.196Z,7.76
2022-09-26T00:09:22.180Z,7.77
2022-09-26T00:10:22.156Z,7.77
2022-09-26T00:11:22.172Z,7.77
2022-09-26T00:12:22.128Z,7.76
2022-09-26T00:13:22.125Z,7.76
2022-09-26T00:14:22.096Z,7.77
2022-09-26T00:15:22.089Z,7.75
2022-09-26T00:16:22.164Z,7.76
2022-09-26T00:17:22.066Z,7.76
2022-09-26T00:18:22.046Z,7.76
2022-09-26T00:19:22.040Z,7.73
2022-09-26T00:20:22.047Z,7.73
2022-09-26T00:21:22.007Z,7.73
2022-09-26T00:22:25.026Z,7.70
2022-09-26T00:23:24.998Z,7.72
2022-09-26T00:24:21.967Z,7.70
2022-09-26T00:25:22.017Z,7.67
2022-09-26T00:26:21.940Z,7.69
2022-09-26T00:27:21.929Z,7.69
2022-09-26T00:28:21.917Z,7.67
2022-09-26T00:29:21.906Z,7.70
2022-09-26T00:30:21.941Z,7.72
2022-09-26T00:31:22.074Z,7.73
2022-09-26T00:32:21.851Z,7.75
2022-09-26T00:33:21.850Z,7.79
2022-09-26T00:34:21.833Z,7.80
2022-09-26T00:35:21.821Z,7.82
2022-09-26T00:36:26.858Z,7.83
2022-09-26T00:37:22.800Z,7.83
2022-09-26T00:38:21.779Z,7.83
2022-09-26T00:39:21.771Z,7.87
2022-09-26T00:40:21.777Z,7.88
2022-09-26T00:41:21.742Z,7.90
2022-09-26T00:42:24.755Z,7.88
2022-09-26T00:43:24.733Z,7.93
2022-09-26T00:44:21.707Z,7.91
2022-09-26T00:45:21.854Z,7.94
2022-09-26T00:46:21.686Z,7.94
2022-09-26T00:47:21.662Z,7.94
2022-09-26T00:48:21.634Z,7.95
2022-09-26T00:49:21.624Z,7.97
2022-09-26T00:50:21.616Z,7.97
2022-09-26T00:51:21.633Z,7.97
2022-09-26T00:52:21.585Z,7.98
2022-09-26T00:53:21.573Z,7.98
2022-09-26T00:54:21.560Z,8.00
2022-09-26T00:55:21.575Z,8.01
2022-09-26T00:56:21.536Z,8.01
2022-09-26T00:57:21.553Z,8.03
2022-09-26T00:58:21.497Z,8.06
2022-09-26T00:59:21.488Z,8.06
2022-09-26T01:00:21.647Z,8.05
2022-09-26T01:01:21.534Z,8.06
2022-09-26T01:02:24.512Z,8.06
2022-09-26T01:03:24.456Z,8.08
2022-09-26T01:04:21.425Z,8.08
2022-09-26T01:05:21.407Z,8.06
2022-09-26T01:06:21.427Z,8.08
2022-09-26T01:07:21.381Z,8.09
2022-09-26T01:08:21.386Z,8.09
2022-09-26T01:09:21.359Z,8.10
2022-09-26T01:10:21.339Z,8.10
2022-09-26T01:11:21.360Z,8.12
2022-09-26T01:12:21.395Z,8.13
2022-09-26T01:13:21.327Z,8.16
2022-09-26T01:14:21.289Z,8.15
2022-09-26T01:15:21.273Z,8.16
2022-09-26T01:16:21.337Z,8.18
2022-09-26T01:17:21.242Z,8.19
2022-09-26T01:18:21.261Z,8.19
2022-09-26T01:19:21.221Z,8.20
2022-09-26T01:20:21.361Z,8.19
2022-09-26T01:21:21.194Z,8.19
2022-09-26T01:22:24.172Z,8.20
2022-09-26T01:23:24.184Z,8.23
2022-09-26T01:24:21.143Z,8.23
2022-09-26T01:25:21.142Z,8.23
2022-09-26T01:26:21.153Z,8.24
2022-09-26T01:27:21.120Z,8.26
2022-09-26T01:28:21.106Z,8.27
2022-09-26T01:29:21.085Z,8.27
2022-09-26T01:30:21.066Z,8.31
2022-09-26T01:31:21.124Z,8.30
2022-09-26T01:32:21.044Z,8.31
2022-09-26T01:33:21.024Z,8.31
2022-09-26T01:34:21.015Z,8.34
2022-09-26T01:35:21.007Z,8.37
2022-09-26T01:36:21.145Z,8.38
2022-09-26T01:37:20.987Z,8.41
2022-09-26T01:38:20.966Z,8.42
2022-09-26T01:39:20.947Z,8.44
2022-09-26T01:40:20.976Z,8.45
2022-09-26T01:41:20.926Z,8.46
2022-09-26T01:42:23.926Z,8.46
2022-09-26T01:43:23.968Z,8.48
2022-09-26T01:44:20.877Z,8.49
2022-09-26T01:45:20.882Z,8.49
2022-09-26T01:46:20.896Z,8.49
2022-09-26T01:47:20.849Z,8.49
2022-09-26T01:48:20.831Z,8.51
2022-09-26T01:49:20.840Z,8.52
2022-09-26T01:50:20.800Z,8.52
2022-09-26T01:51:20.789Z,8.53
2022-09-26T01:52:20.781Z,8.56
2022-09-26T01:53:20.759Z,8.56
2022-09-26T01:54:20.770Z,8.56
2022-09-26T01:55:20.730Z,8.58
2022-09-26T01:56:20.718Z,8.60
2022-09-26T01:57:20.710Z,8.60
2022-09-26T01:58:20.716Z,8.61
2022-09-26T01:59:20.674Z,8.61
2022-09-26T02:00:20.663Z,8.63
2022-09-26T02:01:20.731Z,8.63
2022-09-26T02:02:23.684Z,8.63
2022-09-26T02:03:23.701Z,8.64
2022-09-26T02:04:20.606Z,8.63
2022-09-26T02:05:20.592Z,8.66
2022-09-26T02:06:20.584Z,8.66
2022-09-26T02:07:20.563Z,8.66
2022-09-26T02:08:20.552Z,8.66
2022-09-26T02:09:20.593Z,8.67
2022-09-26T02:10:20.526Z,8.69
2022-09-26T02:11:20.515Z,8.70
2022-09-26T02:12:20.492Z,8.70
2022-09-26T02:13:20.485Z,8.71
2022-09-26T02:14:20.475Z,8.69
2022-09-26T02:15:20.486Z,8.69
2022-09-26T02:16:20.501Z,8.70
2022-09-26T02:17:20.431Z,8.71
2022-09-26T02:18:20.436Z,8.69
2022-09-26T02:19:20.407Z,8.71
2022-09-26T02:20:20.408Z,8.71
2022-09-26T02:21:20.376Z,8.73
2022-09-26T02:22:23.367Z,8.74
2022-09-26T02:23:23.367Z,8.74
2022-09-26T02:24:20.366Z,8.74
2022-09-26T02:25:20.319Z,8.74
2022-09-26T02:26:20.307Z,8.76
2022-09-26T02:27:20.287Z,8.78
2022-09-26T02:28:20.280Z,8.79
2022-09-26T02:29:20.270Z,8.79
2022-09-26T02:30:20.270Z,8.81
2022-09-26T02:31:20.308Z,8.84
2022-09-26T02:32:20.307Z,8.84
2022-09-26T02:33:20.210Z,8.84
2022-09-26T02:34:20.191Z,8.85
2022-09-26T02:35:20.209Z,8.87
2022-09-26T02:36:20.167Z,8.88
2022-09-26T02:37:20.150Z,8.89
2022-09-26T02:38:20.141Z,8.89
2022-09-26T02:39:20.170Z,8.91
2022-09-26T02:40:20.162Z,8.91
2022-09-26T02:41:20.091Z,8.92
2022-09-26T02:42:23.091Z,8.94
2022-09-26T02:43:23.095Z,8.95
2022-09-26T02:44:20.062Z,8.95
2022-09-26T02:45:20.072Z,8.97
2022-09-26T02:46:20.085Z,9.00
2022-09-26T02:47:20.042Z,9.00
2022-09-26T02:48:20.004Z,9.02
2022-09-26T02:49:19.993Z,9.00
2022-09-26T02:50:20.018Z,9.02
2022-09-26T02:51:19.965Z,9.06
2022-09-26T02:52:19.957Z,9.08
2022-09-26T02:53:19.934Z,9.06
2022-09-26T02:54:19.922Z,9.08
2022-09-26T02:55:19.956Z,9.08
2022-09-26T02:56:19.895Z,9.08
2022-09-26T02:57:19.888Z,9.10
2022-09-26T02:58:19.874Z,9.10
2022-09-26T02:59:19.865Z,9.11
2022-09-26T03:00:19.849Z,9.11
2022-09-26T03:01:20.025Z,9.11
2022-09-26T03:02:22.816Z,9.13
2022-09-26T03:03:22.848Z,9.14
2022-09-26T03:04:19.825Z,9.14
2022-09-26T03:05:19.767Z,9.14
2022-09-26T03:06:19.818Z,9.14
2022-09-26T03:07:19.738Z,9.14
2022-09-26T03:08:19.738Z,9.14
2022-09-26T03:09:19.729Z,9.14
2022-09-26T03:10:19.698Z,9.13
2022-09-26T03:11:19.689Z,9.14
2022-09-26T03:12:19.710Z,9.13
2022-09-26T03:13:19.729Z,9.14
2022-09-26T03:14:19.648Z,9.14
2022-09-26T03:15:19.646Z,9.18
2022-09-26T03:16:19.694Z,9.16
2022-09-26T03:17:19.612Z,9.19
2022-09-26T03:18:19.599Z,9.21
2022-09-26T03:19:19.611Z,9.21
2022-09-26T03:20:19.571Z,9.23
2022-09-26T03:21:19.561Z,9.22
2022-09-26T03:22:22.584Z,9.21
2022-09-26T03:23:22.534Z,9.23
2022-09-26T03:24:19.511Z,9.21
2022-09-26T03:25:19.501Z,9.22
2022-09-26T03:26:19.483Z,9.22
2022-09-26T03:27:19.482Z,9.22
2022-09-26T03:28:19.524Z,9.22
2022-09-26T03:29:19.443Z,9.21
2022-09-26T03:30:19.435Z,9.22
2022-09-26T03:31:19.468Z,9.23
2022-09-26T03:32:19.423Z,9.22
2022-09-26T03:33:19.385Z,9.23
2022-09-26T03:34:19.397Z,9.23
2022-09-26T03:35:19.386Z,9.23
2022-09-26T03:36:19.353Z,9.23
2022-09-26T03:37:19.336Z,9.23
2022-09-26T03:38:19.335Z,9.25
2022-09-26T03:39:19.366Z,9.25
2022-09-26T03:40:19.354Z,9.25
2022-09-26T03:41:19.274Z,9.25
2022-09-26T03:42:22.258Z,9.23
2022-09-26T03:43:22.261Z,9.28
2022-09-26T03:44:19.238Z,9.23
2022-09-26T03:45:19.289Z,9.23
2022-09-26T03:46:19.237Z,9.25
2022-09-26T03:47:19.199Z,9.25
2022-09-26T03:48:19.187Z,9.25
2022-09-26T03:49:19.171Z,9.23
2022-09-26T03:50:19.149Z,9.23
2022-09-26T03:51:19.171Z,9.23
2022-09-26T03:52:19.152Z,9.25
2022-09-26T03:53:19.119Z,9.25
2022-09-26T03:54:19.101Z,9.25
2022-09-26T03:55:19.089Z,9.25
2022-09-26T03:56:19.082Z,9.25
2022-09-26T03:57:19.103Z,9.23
2022-09-26T03:58:19.052Z,9.23
2022-09-26T03:59:19.031Z,9.25
2022-09-26T04:00:19.015Z,9.22
2022-09-26T04:01:19.059Z,9.23
2022-09-26T04:02:22.081Z,9.25
2022-09-26T04:03:21.989Z,9.26
2022-09-26T04:04:18.963Z,9.25
2022-09-26T04:05:18.944Z,9.26
2022-09-26T04:06:18.934Z,9.25
2022-09-26T04:07:18.928Z,9.23
2022-09-26T04:08:18.944Z,9.23
2022-09-26T04:09:19.295Z,9.23
2022-09-26T04:10:18.911Z,9.25
2022-09-26T04:11:18.865Z,9.22
2022-09-26T04:12:18.856Z,9.23
2022-09-26T04:13:46.637Z,9.25
2022-09-26T04:14:19.836Z,9.25
2022-09-26T04:15:18.836Z,9.26
2022-09-26T04:16:18.856Z,9.25
2022-09-26T04:17:18.787Z,9.28
2022-09-26T04:18:18.777Z,9.28
2022-09-26T04:19:18.754Z,9.31
2022-09-26T04:20:18.777Z,9.29
2022-09-26T04:21:18.734Z,9.29
2022-09-26T04:22:21.728Z,9.32
2022-09-26T04:23:21.718Z,9.34
2022-09-26T04:24:18.686Z,9.34
2022-09-26T04:25:18.730Z,9.36
2022-09-26T04:26:22.951Z,9.36
2022-09-26T04:27:18.666Z,9.37
2022-09-26T04:28:18.629Z,9.39
2022-09-26T04:29:18.620Z,9.40
2022-09-26T04:30:18.621Z,9.40
2022-09-26T04:31:18.632Z,9.40
2022-09-26T04:32:18.580Z,9.41
2022-09-26T04:33:18.600Z,9.41
2022-09-26T04:34:21.307Z,9.41
2022-09-26T04:35:19.541Z,9.44
2022-09-26T04:36:18.552Z,9.44
2022-09-26T04:37:18.513Z,9.44
2022-09-26T04:38:18.500Z,9.47
2022-09-26T04:39:18.481Z,9.48
2022-09-26T04:40:18.526Z,9.47
2022-09-26T04:41:18.471Z,9.48
2022-09-26T04:42:21.445Z,9.48
2022-09-26T04:43:21.442Z,9.50
2022-09-26T04:44:18.413Z,9.48
2022-09-26T04:45:18.397Z,9.50
2022-09-26T04:46:21.603Z,9.50
2022-09-26T04:47:18.375Z,9.50
2022-09-26T04:48:18.373Z,9.50
2022-09-26T04:49:18.413Z,9.51
2022-09-26T04:50:18.332Z,9.51
2022-09-26T04:51:18.317Z,9.51
2022-09-26T04:52:18.312Z,9.54
2022-09-26T04:53:18.296Z,9.54
2022-09-26T04:54:18.274Z,9.55
2022-09-26T04:55:18.299Z,9.55
2022-09-26T04:56:18.267Z,9.56
2022-09-26T04:57:19.863Z,9.58
2022-09-26T04:58:18.256Z,9.56
2022-09-26T04:59:18.218Z,9.58
2022-09-26T05:00:18.208Z,9.58
2022-09-26T05:01:18.335Z,9.61
2022-09-26T05:02:21.197Z,9.62
2022-09-26T05:03:21.335Z,9.64
2022-09-26T05:04:18.138Z,9.62
2022-09-26T05:05:18.121Z,9.62
2022-09-26T05:06:18.116Z,9.64
2022-09-26T05:07:18.099Z,9.64
2022-09-26T05:08:18.079Z,9.65
2022-09-26T05:09:18.097Z,9.64
2022-09-26T05:10:18.058Z,9.64
2022-09-26T05:11:18.042Z,9.65
2022-09-26T05:12:18.031Z,9.66
2022-09-26T05:13:18.011Z,9.66
2022-09-26T05:14:18.160Z,9.68
2022-09-26T05:15:17.982Z,9.66
2022-09-26T05:16:18.021Z,9.68
2022-09-26T05:17:17.958Z,9.66
2022-09-26T05:18:17.949Z,9.68
2022-09-26T05:19:17.933Z,9.69
2022-09-26T05:20:17.943Z,9.69
2022-09-26T05:21:17.942Z,9.69
2022-09-26T05:22:20.902Z,9.72
2022-09-26T05:23:20.894Z,9.72
2022-09-26T05:24:17.883Z,9.72
2022-09-26T05:25:17.874Z,9.72
2022-09-26T05:26:17.996Z,9.73
2022-09-26T05:27:17.824Z,9.74
2022-09-26T05:28:17.822Z,9.76
2022-09-26T05:29:17.943Z,9.76
2022-09-26T05:30:17.789Z,9.77
2022-09-26T05:31:17.858Z,9.77
2022-09-26T05:32:17.786Z,9.79
2022-09-26T05:33:17.747Z,9.77
2022-09-26T05:34:24.734Z,9.77
2022-09-26T05:35:17.704Z,9.82
2022-09-26T05:36:17.696Z,9.83
2022-09-26T05:37:17.853Z,9.83
2022-09-26T05:38:17.671Z,9.86
2022-09-26T05:39:17.652Z,9.84
2022-09-26T05:40:17.718Z,9.87
2022-09-26T05:41:17.632Z,9.87
2022-09-26T05:42:20.636Z,9.89
2022-09-26T05:43:20.616Z,9.91
2022-09-26T05:44:17.586Z,9.91
2022-09-26T05:45:17.575Z,9.92
2022-09-26T05:46:17.625Z,9.94
2022-09-26T05:47:17.709Z,9.95
2022-09-26T05:48:17.689Z,9.95
2022-09-26T05:49:17.516Z,9.95
2022-09-26T05:50:17.506Z,9.97
2022-09-26T05:51:17.490Z,9.98
2022-09-26T05:52:17.479Z,9.99
2022-09-26T05:53:17.491Z,10.01
2022-09-26T05:54:17.608Z,10.02
2022-09-26T05:55:17.428Z,10.04
2022-09-26T05:56:19.015Z,10.05
2022-09-26T05:57:17.409Z,10.05
2022-09-26T05:58:17.399Z,10.09
2022-09-26T05:59:17.379Z,10.07
2022-09-26T06:00:17.413Z,10.09
2022-09-26T06:01:17.394Z,10.10
2022-09-26T06:02:21.171Z,10.09
2022-09-26T06:03:20.364Z,10.12
2022-09-26T06:04:17.312Z,10.13
2022-09-26T06:05:17.292Z,10.13
2022-09-26T06:06:17.291Z,10.15
2022-09-26T06:07:17.273Z,10.17
2022-09-26T06:08:17.342Z,10.17
2022-09-26T06:09:17.281Z,10.17
2022-09-26T06:10:17.295Z,10.19
2022-09-26T06:11:17.256Z,10.20
2022-09-26T06:12:17.205Z,10.20
2022-09-26T06:13:17.192Z,10.23
2022-09-26T06:14:17.188Z,10.23
2022-09-26T06:15:17.155Z,10.23
2022-09-26T06:16:17.239Z,10.25
2022-09-26T06:17:17.325Z,10.26
2022-09-26T06:18:17.133Z,10.26
2022-09-26T06:19:22.035Z,10.28
2022-09-26T06:20:18.096Z,10.30
2022-09-26T06:21:17.081Z,10.28
2022-09-26T06:22:20.103Z,10.31
2022-09-26T06:23:20.069Z,10.33
2022-09-26T06:24:17.055Z,10.33
2022-09-26T06:25:17.043Z,10.35
2022-09-26T06:26:17.018Z,10.35
2022-09-26T06:27:17.037Z,10.37
2022-09-26T06:28:17.151Z,10.40
2022-09-26T06:29:17.008Z,10.40
2022-09-26T06:30:16.960Z,10.41
2022-09-26T06:31:17.129Z,10.44
2022-09-26T06:32:16.929Z,10.44
2022-09-26T06:33:16.919Z,10.48
2022-09-26T06:34:16.930Z,10.51
2022-09-26T06:35:16.891Z,10.49
2022-09-26T06:36:16.899Z,10.53
2022-09-26T06:37:16.859Z,10.54
2022-09-26T06:38:16.853Z,10.57
2022-09-26T06:39:17.033Z,10.60
2022-09-26T06:40:16.880Z,10.60
2022-09-26T06:41:16.814Z,10.61
2022-09-26T06:42:19.812Z,10.63
2022-09-26T06:43:19.958Z,10.64
2022-09-26T06:44:16.774Z,10.64
2022-09-26T06:45:16.754Z,10.67
2022-09-26T06:46:16.800Z,10.68
2022-09-26T06:47:16.828Z,10.68
2022-09-26T06:48:19.876Z,10.71
2022-09-26T06:49:17.878Z,10.71
2022-09-26T06:50:16.728Z,10.74
2022-09-26T06:51:16.681Z,10.75
2022-09-26T06:52:16.668Z,10.76
2022-09-26T06:53:16.656Z,10.79
2022-09-26T06:54:16.644Z,10.81
2022-09-26T06:55:16.781Z,10.82
2022-09-26T06:56:16.612Z,10.84
2022-09-26T06:57:16.600Z,10.86
2022-09-26T06:58:16.618Z,10.86
2022-09-26T06:59:16.687Z,10.89
2022-09-26T07:00:16.633Z,10.92
2022-09-26T07:01:16.839Z,10.94
2022-09-26T07:02:19.599Z,10.96
2022-09-26T07:03:19.563Z,11.02
2022-09-26T07:04:16.510Z,11.02
2022-09-26T07:05:16.573Z,11.07
2022-09-26T07:06:16.479Z,11.08
2022-09-26T07:07:16.502Z,11.11
2022-09-26T07:08:16.480Z,11.11
2022-09-26T07:09:16.813Z,11.12
2022-09-26T07:10:16.432Z,11.15
2022-09-26T07:11:35.073Z,11.18
2022-09-26T07:12:17.403Z,11.19
2022-09-26T07:13:16.551Z,11.19
2022-09-26T07:14:16.374Z,11.23
2022-09-26T07:15:16.378Z,11.19
2022-09-26T07:16:16.400Z,11.23
2022-09-26T07:17:16.341Z,11.25
2022-09-26T07:18:16.335Z,11.27
2022-09-26T07:19:16.343Z,11.32
2022-09-26T07:20:16.343Z,11.33
2022-09-26T07:21:16.285Z,11.36
2022-09-26T07:22:19.275Z,11.40
2022-09-26T07:23:19.308Z,11.44
2022-09-26T07:24:16.245Z,11.47
2022-09-26T07:25:16.237Z,11.51
2022-09-26T07:26:16.247Z,11.54
2022-09-26T07:27:16.217Z,11.60
2022-09-26T07:28:16.188Z,11.59
2022-09-26T07:29:16.365Z,11.62
2022-09-26T07:30:16.194Z,11.66
2022-09-26T07:31:16.189Z,11.65
2022-09-26T07:32:16.158Z,11.68
2022-09-26T07:33:16.119Z,11.65
2022-09-26T07:34:18.610Z,11.65
2022-09-26T07:35:16.089Z,11.65
2022-09-26T07:36:16.077Z,11.69
2022-09-26T07:37:16.090Z,11.69
2022-09-26T07:38:16.056Z,11.70
2022-09-26T07:39:16.294Z,11.69
2022-09-26T07:40:16.125Z,11.68
2022-09-26T07:41:16.011Z,11.66
2022-09-26T07:42:19.051Z,11.66
2022-09-26T07:43:20.363Z,11.66
2022-09-26T07:45:28.102Z,11.68
2022-09-26T07:46:16.990Z,11.68
2022-09-26T07:47:15.921Z,11.66
2022-09-26T07:48:15.933Z,11.68
2022-09-26T07:49:15.893Z,11.72
2022-09-26T07:50:15.873Z,11.72
2022-09-26T07:51:15.870Z,11.75
2022-09-26T07:52:15.873Z,11.77
2022-09-26T07:53:15.866Z,11.80
2022-09-26T07:54:16.021Z,11.83
2022-09-26T07:55:15.812Z,11.81
2022-09-26T07:56:15.796Z,11.81
2022-09-26T07:57:15.792Z,11.84
2022-09-26T07:58:15.793Z,11.83
2022-09-26T07:59:15.757Z,11.84
2022-09-26T08:00:15.736Z,11.83
2022-09-26T08:01:15.784Z,11.84
2022-09-26T08:02:18.855Z,11.88
2022-09-26T08:03:18.791Z,11.99
2022-09-26T08:04:15.835Z,12.03
2022-09-26T08:05:15.667Z,12.07
2022-09-26T08:06:15.659Z,12.07
2022-09-26T08:07:15.649Z,12.15
2022-09-26T08:08:15.654Z,12.18
2022-09-26T08:09:15.737Z,12.21
2022-09-26T08:10:16.385Z,12.25
2022-09-26T08:11:15.612Z,12.31
2022-09-26T08:12:15.571Z,12.36
2022-09-26T08:13:15.710Z,12.39
2022-09-26T08:14:15.687Z,12.42
2022-09-26T08:15:15.542Z,12.37
2022-09-26T08:16:15.548Z,12.43
2022-09-26T08:17:15.512Z,12.49
2022-09-26T08:18:15.493Z,12.53
2022-09-26T08:19:15.747Z,12.60
2022-09-26T08:20:15.462Z,12.62
2022-09-26T08:21:15.453Z,12.62
2022-09-26T08:22:18.434Z,12.68
2022-09-26T08:23:18.463Z,12.72
2022-09-26T08:24:15.567Z,12.70
2022-09-26T08:25:15.455Z,12.75
2022-09-26T08:26:15.384Z,12.78
2022-09-26T08:27:15.376Z,12.76
2022-09-26T08:28:15.354Z,12.76
2022-09-26T08:29:15.347Z,12.80
2022-09-26T08:30:15.327Z,12.86
2022-09-26T08:31:15.398Z,12.93
2022-09-26T08:32:15.295Z,12.95
2022-09-26T08:33:15.289Z,12.90
2022-09-26T08:34:15.366Z,12.94
2022-09-26T08:35:15.263Z,12.97
2022-09-26T08:36:15.419Z,13.09
2022-09-26T08:37:15.243Z,13.15
2022-09-26T08:38:15.230Z,13.20
2022-09-26T08:39:15.357Z,13.18
2022-09-26T08:40:15.225Z,13.12
2022-09-26T08:41:15.186Z,13.12
2022-09-26T08:42:18.189Z,13.11
2022-09-26T08:43:18.171Z,13.15
2022-09-26T08:44:15.195Z,13.19
2022-09-26T08:45:15.131Z,13.18
2022-09-26T08:46:15.177Z,13.19
2022-09-26T08:47:15.112Z,13.16
2022-09-26T08:48:15.081Z,13.18
2022-09-26T08:49:15.071Z,13.22
2022-09-26T08:50:15.074Z,13.20
2022-09-26T08:51:15.072Z,13.15
2022-09-26T08:52:15.065Z,13.11
2022-09-26T08:53:15.026Z,13.11
2022-09-26T08:54:15.120Z,13.09
2022-09-26T08:55:15.010Z,13.11
2022-09-26T08:56:14.974Z,13.08
2022-09-26T08:57:14.997Z,13.09
2022-09-26T08:58:14.959Z,13.11
2022-09-26T08:59:14.946Z,13.12
2022-09-26T09:00:14.924Z,13.18
2022-09-26T09:01:15.033Z,13.20
2022-09-26T09:02:18.076Z,13.18
2022-09-26T09:03:17.924Z,13.20
2022-09-26T09:04:14.949Z,13.20
2022-09-26T09:05:14.858Z,13.19
2022-09-26T09:06:14.848Z,13.18
2022-09-26T09:07:14.832Z,13.20
2022-09-26T09:08:14.822Z,13.22
2022-09-26T09:09:14.832Z,13.25
2022-09-26T09:10:14.790Z,13.30
2022-09-26T09:11:14.781Z,13.35
2022-09-26T09:12:14.765Z,13.37
2022-09-26T09:13:14.757Z,13.39
2022-09-26T09:14:15.011Z,13.33
2022-09-26T09:15:25.066Z,13.23
2022-09-26T09:16:15.785Z,13.22
2022-09-26T09:17:14.723Z,13.22
2022-09-26T09:18:14.682Z,13.20
2022-09-26T09:19:14.713Z,13.23
2022-09-26T09:20:14.653Z,13.27
2022-09-26T09:21:14.661Z,13.33
2022-09-26T09:22:17.654Z,13.31
2022-09-26T09:23:17.635Z,13.33
2022-09-26T09:24:14.766Z,13.35
2022-09-26T09:25:14.624Z,13.42
2022-09-26T09:28:15.561Z,13.47
2022-09-26T09:29:18.985Z,13.42
2022-09-26T09:30:16.887Z,13.42
2022-09-26T09:31:14.566Z,13.41
2022-09-26T09:32:14.508Z,13.37
2022-09-26T09:33:14.536Z,13.44
2022-09-26T09:34:14.498Z,13.52
2022-09-26T09:35:14.457Z,13.52
2022-09-26T09:36:14.512Z,13.56
2022-09-26T09:37:14.428Z,13.59
2022-09-26T09:38:14.410Z,13.63
2022-09-26T09:39:14.398Z,13.67
2022-09-26T09:40:14.449Z,13.70
2022-09-26T09:41:14.385Z,13.74
2022-09-26T09:42:17.393Z,13.81
2022-09-26T09:43:17.363Z,13.89
2022-09-26T09:44:14.417Z,13.89
2022-09-26T09:45:14.321Z,13.89
2022-09-26T09:46:14.391Z,13.95
2022-09-26T09:47:14.332Z,13.93
2022-09-26T09:48:14.292Z,13.87
2022-09-26T09:49:14.282Z,13.81
2022-09-26T09:50:14.250Z,13.78
2022-09-26T09:51:14.293Z,13.74
2022-09-26T09:52:14.225Z,13.72
2022-09-26T09:53:14.214Z,13.72
2022-09-26T09:54:14.314Z,13.78
2022-09-26T09:55:14.183Z,13.79
2022-09-26T09:56:14.176Z,13.77
2022-09-26T09:57:14.206Z,13.77
2022-09-26T09:58:14.143Z,13.79
2022-09-26T09:59:14.131Z,13.81
2022-09-26T10:00:14.128Z,13.77
2022-09-26T10:01:14.121Z,13.78
2022-09-26T10:02:17.116Z,13.79
2022-09-26T10:03:17.127Z,13.78
2022-09-26T10:04:14.291Z,13.71
2022-09-26T10:05:14.047Z,13.70
2022-09-26T10:06:46.615Z,13.65
2022-09-26T10:07:15.028Z,13.65
2022-09-26T10:08:13.999Z,13.56
2022-09-26T10:09:39.501Z,13.63
2022-09-26T10:10:15.051Z,13.74
2022-09-26T10:11:13.966Z,13.79
2022-09-26T10:12:13.954Z,13.78
2022-09-26T10:13:13.941Z,13.75
2022-09-26T10:14:14.191Z,13.75
2022-09-26T10:15:13.913Z,13.71
2022-09-26T10:16:14.010Z,13.60
2022-09-26T10:17:13.883Z,13.53
2022-09-26T10:18:29.268Z,13.47
2022-09-26T10:19:14.882Z,13.37
2022-09-26T10:20:13.864Z,13.22
2022-09-26T10:21:13.832Z,13.12
2022-09-26T10:22:16.814Z,13.00
2022-09-26T10:23:16.814Z,12.97
2022-09-26T10:24:13.858Z,12.93
2022-09-26T10:25:13.817Z,12.87
2022-09-26T10:26:13.762Z,12.85
2022-09-26T10:27:13.752Z,12.86
2022-09-26T10:28:13.732Z,12.85
2022-09-26T10:29:13.718Z,12.85
2022-09-26T10:30:13.728Z,12.78
2022-09-26T10:31:13.751Z,12.72
2022-09-26T10:32:13.679Z,12.68
2022-09-26T10:33:13.668Z,12.68
2022-09-26T10:34:13.810Z,12.67
2022-09-26T10:35:18.788Z,12.67
2022-09-26T10:36:14.621Z,12.68
2022-09-26T10:37:13.611Z,12.75
2022-09-26T10:38:13.601Z,12.75
2022-09-26T10:39:13.591Z,12.79
2022-09-26T10:40:13.627Z,12.90
2022-09-26T10:41:13.604Z,12.94
2022-09-26T10:42:16.544Z,13.01
2022-09-26T10:43:16.595Z,13.13
2022-09-26T10:44:13.522Z,13.15
2022-09-26T10:45:13.501Z,13.25
2022-09-26T10:46:13.546Z,13.25
2022-09-26T10:47:13.509Z,13.31
2022-09-26T10:48:13.462Z,13.37
2022-09-26T10:49:13.454Z,13.41
2022-09-26T10:50:13.450Z,13.46
2022-09-26T10:51:13.427Z,13.46
2022-09-26T10:52:18.231Z,13.49
2022-09-26T10:53:14.395Z,13.49
2022-09-26T10:54:13.425Z,13.53
2022-09-26T10:55:13.370Z,13.59
2022-09-26T10:56:13.357Z,13.53
2022-09-26T10:57:13.367Z,13.56
2022-09-26T10:58:14.158Z,13.57
2022-09-26T10:59:13.342Z,13.53
2022-09-26T11:00:13.298Z,13.54
2022-09-26T11:01:13.343Z,13.57
2022-09-26T11:02:16.279Z,13.60
2022-09-26T11:03:16.340Z,13.62
2022-09-26T11:04:13.433Z,13.59
2022-09-26T11:05:13.241Z,13.54
2022-09-26T11:06:13.229Z,13.52
2022-09-26T11:07:13.218Z,13.49
2022-09-26T11:08:13.222Z,13.46
2022-09-26T11:09:13.198Z,13.37
2022-09-26T11:10:13.251Z,13.22
2022-09-26T11:11:13.172Z,13.15
2022-09-26T11:12:13.142Z,13.11
2022-09-26T11:13:13.150Z,13.01
2022-09-26T11:14:13.224Z,12.93
2022-09-26T11:15:13.112Z,12.86
2022-09-26T11:16:13.312Z,12.87
2022-09-26T11:17:13.082Z,12.91
2022-09-26T11:18:13.130Z,12.80
2022-09-26T11:19:13.078Z,12.75
2022-09-26T11:20:13.104Z,12.70
2022-09-26T11:21:27.797Z,12.68
2022-09-26T11:22:17.016Z,12.70
2022-09-26T11:23:16.056Z,12.75
2022-09-26T11:24:13.002Z,12.75
2022-09-26T11:25:12.964Z,12.80
2022-09-26T11:26:12.958Z,12.83
2022-09-26T11:27:12.937Z,12.86
2022-09-26T11:28:12.928Z,12.90
2022-09-26T11:29:13.032Z,12.94
2022-09-26T11:30:12.906Z,12.95
2022-09-26T11:31:12.901Z,13.00
2022-09-26T11:32:12.880Z,13.01
2022-09-26T11:33:12.858Z,13.04
2022-09-26T11:34:12.909Z,13.04
2022-09-26T11:35:22.581Z,13.00
2022-09-26T11:36:12.930Z,12.94
2022-09-26T11:37:12.841Z,12.90
2022-09-26T11:38:12.805Z,12.90
2022-09-26T11:39:12.892Z,12.85
2022-09-26T11:40:13.008Z,12.83
2022-09-26T11:41:12.763Z,12.86
2022-09-26T11:42:15.793Z,12.87
2022-09-26T11:43:15.754Z,12.85
2022-09-26T11:44:12.735Z,12.85
2022-09-26T11:45:12.738Z,12.85
2022-09-26T11:46:12.797Z,12.83
2022-09-26T11:47:12.694Z,12.82
2022-09-26T11:48:12.689Z,12.80
2022-09-26T11:49:12.666Z,12.83
2022-09-26T11:50:12.666Z,12.80
2022-09-26T11:51:12.616Z,12.85
2022-09-26T11:52:12.628Z,12.86
2022-09-26T11:53:12.645Z,12.91
2022-09-26T11:54:12.677Z,12.94
2022-09-26T11:55:12.591Z,12.98
2022-09-26T11:56:12.567Z,12.97
2022-09-26T11:57:12.548Z,12.98
2022-09-26T11:58:13.506Z,13.01
2022-09-26T11:59:12.528Z,13.03
2022-09-26T12:00:12.538Z,13.01
2022-09-26T12:01:12.523Z,13.04
2022-09-26T12:02:15.583Z,13.11
2022-09-26T12:03:15.612Z,13.19
2022-09-26T12:04:12.639Z,13.20
2022-09-26T12:05:12.470Z,13.19
2022-09-26T12:06:12.434Z,13.19
2022-09-26T12:07:12.402Z,13.18
2022-09-26T12:08:12.402Z,13.11
2022-09-26T12:09:12.386Z,13.11
2022-09-26T12:10:12.422Z,13.11
2022-09-26T12:11:12.372Z,13.15
2022-09-26T12:12:12.353Z,13.19
2022-09-26T12:13:12.321Z,13.19
2022-09-26T12:14:12.381Z,13.20
2022-09-26T12:15:12.304Z,13.20
2022-09-26T12:16:12.397Z,13.20
2022-09-26T12:17:12.303Z,13.20
2022-09-26T12:18:12.285Z,13.18
2022-09-26T12:19:16.305Z,13.15
2022-09-26T12:20:12.256Z,13.13
2022-09-26T12:21:12.217Z,13.15
2022-09-26T12:22:15.267Z,13.15
2022-09-26T12:23:15.230Z,13.13
2022-09-26T12:24:12.261Z,13.09
2022-09-26T12:25:16.549Z,13.05
2022-09-26T12:26:13.196Z,13.04
2022-09-26T12:27:12.160Z,12.98
2022-09-26T12:28:12.220Z,12.95
2022-09-26T12:29:12.109Z,12.87
2022-09-26T12:30:12.121Z,12.79
2022-09-26T12:31:15.996Z,12.75
2022-09-26T12:32:13.089Z,12.70
2022-09-26T12:33:12.073Z,12.67
2022-09-26T12:34:12.162Z,12.67
2022-09-26T12:35:12.130Z,12.65
2022-09-26T12:36:12.030Z,12.65
2022-09-26T12:37:12.027Z,12.62
2022-09-26T12:38:12.062Z,12.61
2022-09-26T12:39:12.088Z,12.60
2022-09-26T12:40:12.046Z,12.57
2022-09-26T12:41:11.997Z,12.55
2022-09-26T12:42:15.072Z,12.53
2022-09-26T12:43:15.238Z,12.55
2022-09-26T12:44:11.923Z,12.49
2022-09-26T12:45:12.805Z,12.49
2022-09-26T12:46:11.989Z,12.45
2022-09-26T12:47:12.979Z,12.47
2022-09-26T12:48:13.951Z,12.46
2022-09-26T12:49:18.787Z,12.40
2022-09-26T12:50:11.832Z,12.39
2022-09-26T12:51:18.914Z,12.36
2022-09-26T12:52:16.785Z,12.39
2022-09-26T12:53:12.358Z,12.39
2022-09-26T12:54:15.841Z,12.40
2022-09-26T12:55:22.818Z,12.42
2022-09-26T12:56:11.809Z,12.43
2022-09-26T12:57:13.846Z,12.45
2022-09-26T12:58:13.197Z,12.45
2022-09-26T12:59:12.123Z,12.47
2022-09-26T13:00:16.311Z,12.45
2022-09-26T13:01:11.743Z,12.46
2022-09-26T13:02:17.046Z,12.46
2022-09-26T13:03:15.382Z,12.47
2022-09-26T13:04:11.721Z,12.47
2022-09-26T13:05:35.685Z,12.46
2022-09-26T13:06:11.617Z,12.43
2022-09-26T13:07:40.493Z,12.39